Portada
METAR-TAF:

METAR-TAF

Aeropuertos :

Rochelle Municipal Airport (Koritz Field)

Rochelle, Illinois, Estados Unidos

latitud: 41-53-35N, longitud: 089-04-42W, altitud: 238 m

Observación

El informe se hizo hace 25 minutos, a las 13:35 UTC
Viento calma
Temperatura 7°C
Humedad 61%
Presión 1028 hPa
Visibilidad: 16.1 km
Cielo despejado

METAR: KRPJ 111335Z AUTO 00000KT 10SM CLR 07/00 A3036 RMK AO2 T00741005 TSNO

Hora: 09:00 (14:00 UTC)


TAF: falta

Observaciones y pronósticos meteorológicos de más de 4000 aeropuertos (mensajes METAR y TAF).

Los puntos amarillos y rojos representan las estaciones disponibles.

Ponga el ratón en el punto deseado para ver el nombre de la estación.

Haga clic para ver las observaciones y los pronósticos meteorológicos.

Para cambiar el mapa : haga clic en los botones verdes con una cruz de color negro para hacer un zoom, en el botón verde con un guión para alejar o en las flechas verdes para mapas adyacentes.


METAR-TAF: